KLM702 SAEZ-EHAM
Flight info
| Callsign | KLM702 |
|---|---|
| Flight time | N/A |
| Altitude | 37000 |
| Route | DORVO1A DORVO UN857 OGRUN DCT NIGBI UZ121 PENSO UZ5 SEKPO DCT KADAG/N0503F330 UZ2 SLI DCT MAVKO DCT GOGSO/N0495F350 DCT GARPO/M084F350 DCT TEGTO DCT SORAD DCT 35N022W/M084F370 40N019W DCT GONAN DCT TAMEL DCT EVBAK DCT GAPLI/N0482F370 DCT GAJIT DCT ENHAQ DCT REDFA |
| Aircraft | B77W/H-SDE1E2E3FGHIJ2J3J4J5M1RWXY/LB1D1 |
Departure
| Time | N/A |
|---|---|
| Airport | Ezeiza International Airport - Ministro Pistarini (SAEZ) |
Arrival
| Time | 2026-05-07 13:50 |
|---|---|
| Airport | Amsterdam Airport Schiphol (EHAM) |
| Time | Latitude | Longitude | Altitude | Speed | Heading |
|---|---|---|---|---|---|
| 2026-05-07 12:07 | 46.98087 | -12.21208 | 36953 ft | 479 kts | 31° |
| 2026-05-07 12:08 | 47.03693 | -12.15918 | 36955 ft | 479 kts | 31° |
| 2026-05-07 12:08 | 47.09300 | -12.10615 | 36953 ft | 480 kts | 31° |
| 2026-05-07 12:09 | 47.14865 | -12.05338 | 36953 ft | 479 kts | 31° |
| 2026-05-07 12:09 | 47.20467 | -12.00012 | 36955 ft | 480 kts | 31° |
| 2026-05-07 12:10 | 47.26071 | -11.94669 | 36952 ft | 480 kts | 31° |
| 2026-05-07 12:10 | 47.31673 | -11.89313 | 36954 ft | 480 kts | 31° |
| 2026-05-07 12:11 | 47.37272 | -11.83950 | 36954 ft | 480 kts | 31° |
| 2026-05-07 12:11 | 47.42878 | -11.78565 | 36955 ft | 481 kts | 32° |
| 2026-05-07 12:12 | 47.48484 | -11.73165 | 36954 ft | 481 kts | 32° |
| 2026-05-07 12:12 | 47.54091 | -11.67752 | 36956 ft | 481 kts | 32° |
| 2026-05-07 12:13 | 47.59694 | -11.62326 | 36952 ft | 481 kts | 32° |
| 2026-05-07 12:13 | 47.65297 | -11.56889 | 36954 ft | 481 kts | 32° |
| 2026-05-07 12:14 | 47.70893 | -11.51443 | 36953 ft | 481 kts | 32° |
| 2026-05-07 12:14 | 47.76485 | -11.45987 | 36954 ft | 481 kts | 31° |
| 2026-05-07 12:15 | 47.82070 | -11.40521 | 36953 ft | 481 kts | 31° |
| 2026-05-07 12:15 | 47.87659 | -11.35038 | 36955 ft | 481 kts | 31° |
| 2026-05-07 12:16 | 47.93252 | -11.29541 | 36953 ft | 482 kts | 31° |
| 2026-05-07 12:16 | 47.98836 | -11.24036 | 36953 ft | 482 kts | 31° |
| 2026-05-07 12:17 | 48.04428 | -11.18508 | 36954 ft | 482 kts | 32° |
| 2026-05-07 12:17 | 48.09987 | -11.12994 | 36954 ft | 483 kts | 32° |
| 2026-05-07 12:18 | 48.15586 | -11.07431 | 36954 ft | 484 kts | 32° |
| 2026-05-07 12:18 | 48.21195 | -11.01846 | 36954 ft | 484 kts | 32° |
| 2026-05-07 12:19 | 48.26804 | -10.96239 | 36958 ft | 484 kts | 32° |
| 2026-05-07 12:19 | 48.32412 | -10.90620 | 36964 ft | 485 kts | 32° |
| 2026-05-07 12:20 | 48.38025 | -10.84984 | 36963 ft | 486 kts | 32° |
| 2026-05-07 12:20 | 48.43639 | -10.79328 | 36963 ft | 486 kts | 32° |
| 2026-05-07 12:21 | 48.49256 | -10.73653 | 36964 ft | 486 kts | 33° |
| 2026-05-07 12:21 | 48.54872 | -10.67964 | 36963 ft | 486 kts | 33° |
| 2026-05-07 12:22 | 48.60486 | -10.62262 | 36960 ft | 486 kts | 33° |
| 2026-05-07 12:22 | 48.66093 | -10.56556 | 36965 ft | 486 kts | 33° |
| 2026-05-07 12:23 | 48.71610 | -10.50642 | 36961 ft | 487 kts | 39° |
| 2026-05-07 12:23 | 48.76408 | -10.43417 | 36962 ft | 487 kts | 49° |
| 2026-05-07 12:24 | 48.80711 | -10.35476 | 36964 ft | 488 kts | 50° |
| 2026-05-07 12:24 | 48.85018 | -10.27500 | 36963 ft | 488 kts | 50° |
| 2026-05-07 12:25 | 48.89353 | -10.19554 | 36980 ft | 489 kts | 50° |
| 2026-05-07 12:25 | 48.93696 | -10.11603 | 36980 ft | 489 kts | 50° |
| 2026-05-07 12:26 | 48.98033 | -10.03631 | 36985 ft | 489 kts | 50° |
| 2026-05-07 12:26 | 49.02306 | -9.95665 | 36985 ft | 489 kts | 51° |
| 2026-05-07 12:27 | 49.06508 | -9.87527 | 36984 ft | 489 kts | 52° |
| 2026-05-07 12:27 | 49.10692 | -9.79361 | 37002 ft | 488 kts | 52° |
| 2026-05-07 12:28 | 49.14875 | -9.71195 | 37000 ft | 488 kts | 52° |
| 2026-05-07 12:28 | 49.19066 | -9.63017 | 37003 ft | 489 kts | 52° |
| 2026-05-07 12:29 | 49.23252 | -9.54827 | 36999 ft | 489 kts | 52° |
| 2026-05-07 12:29 | 49.27428 | -9.46631 | 36994 ft | 488 kts | 52° |
| 2026-05-07 12:30 | 49.31594 | -9.38431 | 36981 ft | 487 kts | 52° |
| 2026-05-07 12:30 | 49.35749 | -9.30228 | 36982 ft | 487 kts | 52° |
| 2026-05-07 12:31 | 49.39897 | -9.22014 | 36985 ft | 487 kts | 52° |
| 2026-05-07 12:31 | 49.44036 | -9.13788 | 36983 ft | 487 kts | 53° |
| 2026-05-07 12:32 | 49.48141 | -9.05605 | 36981 ft | 487 kts | 53° |
| 2026-05-07 12:32 | 49.52270 | -8.97351 | 36981 ft | 487 kts | 53° |
| 2026-05-07 12:33 | 49.58451 | -8.84945 | 36978 ft | 487 kts | 53° |
| 2026-05-07 12:33 | 49.62564 | -8.76658 | 36982 ft | 486 kts | 53° |
| 2026-05-07 12:34 | 49.66670 | -8.68359 | 36982 ft | 487 kts | 53° |
| 2026-05-07 12:34 | 49.70772 | -8.60040 | 36984 ft | 487 kts | 53° |
| 2026-05-07 12:35 | 49.74867 | -8.51708 | 36981 ft | 487 kts | 53° |
| 2026-05-07 12:35 | 49.78959 | -8.43363 | 36978 ft | 487 kts | 53° |
| 2026-05-07 12:36 | 49.83040 | -8.35007 | 37007 ft | 486 kts | 53° |
| 2026-05-07 12:36 | 49.87118 | -8.26632 | 37010 ft | 487 kts | 54° |
| 2026-05-07 12:37 | 49.91161 | -8.18305 | 37011 ft | 487 kts | 54° |
| 2026-05-07 12:37 | 49.95227 | -8.09903 | 37008 ft | 487 kts | 54° |
| 2026-05-07 12:38 | 49.99172 | -8.01368 | 37022 ft | 485 kts | 59° |
| 2026-05-07 12:38 | 50.02165 | -7.92004 | 37018 ft | 483 kts | 69° |
| 2026-05-07 12:39 | 50.04611 | -7.82264 | 37022 ft | 483 kts | 70° |
| 2026-05-07 12:39 | 50.07033 | -7.72502 | 37018 ft | 484 kts | 70° |
| 2026-05-07 12:40 | 50.09478 | -7.62747 | 37018 ft | 484 kts | 70° |
| 2026-05-07 12:40 | 50.11936 | -7.52981 | 37019 ft | 484 kts | 70° |
| 2026-05-07 12:41 | 50.14389 | -7.43212 | 37016 ft | 484 kts | 70° |
| 2026-05-07 12:41 | 50.16834 | -7.33430 | 37017 ft | 484 kts | 70° |
| 2026-05-07 12:42 | 50.19267 | -7.23653 | 37017 ft | 483 kts | 70° |
| 2026-05-07 12:42 | 50.21689 | -7.13872 | 37018 ft | 483 kts | 70° |
| 2026-05-07 12:43 | 50.24085 | -7.04149 | 37019 ft | 483 kts | 70° |
| 2026-05-07 12:43 | 50.26489 | -6.94358 | 37020 ft | 482 kts | 70° |
| 2026-05-07 12:44 | 50.28881 | -6.84568 | 37018 ft | 482 kts | 70° |
| 2026-05-07 12:44 | 50.31265 | -6.74770 | 37018 ft | 482 kts | 70° |
| 2026-05-07 12:45 | 50.33637 | -6.64974 | 37018 ft | 481 kts | 70° |
| 2026-05-07 12:45 | 50.35999 | -6.55169 | 37020 ft | 482 kts | 70° |
| 2026-05-07 12:46 | 50.38357 | -6.45340 | 37018 ft | 482 kts | 70° |
| 2026-05-07 12:46 | 50.40706 | -6.35510 | 37018 ft | 482 kts | 71° |
| 2026-05-07 12:47 | 50.42653 | -6.27325 | 37020 ft | 482 kts | 71° |
| 2026-05-07 12:47 | 50.44990 | -6.17463 | 37018 ft | 483 kts | 71° |
| 2026-05-07 12:48 | 50.47323 | -6.07578 | 37021 ft | 483 kts | 71° |
| 2026-05-07 12:48 | 50.49649 | -5.97672 | 37018 ft | 484 kts | 71° |
| 2026-05-07 12:49 | 50.51966 | -5.87757 | 37021 ft | 483 kts | 71° |
| 2026-05-07 12:49 | 50.54274 | -5.77835 | 37017 ft | 483 kts | 71° |
| 2026-05-07 12:50 | 50.56571 | -5.67917 | 37020 ft | 483 kts | 71° |
| 2026-05-07 12:50 | 50.58855 | -5.58003 | 37018 ft | 482 kts | 71° |
| 2026-05-07 12:51 | 50.61130 | -5.48082 | 37018 ft | 482 kts | 71° |
| 2026-05-07 12:51 | 50.63397 | -5.38160 | 37019 ft | 481 kts | 71° |
| 2026-05-07 12:52 | 50.65640 | -5.28295 | 37021 ft | 481 kts | 71° |
| 2026-05-07 12:52 | 50.67888 | -5.18356 | 37018 ft | 481 kts | 71° |
| 2026-05-07 12:53 | 50.70124 | -5.08421 | 37017 ft | 480 kts | 71° |
| 2026-05-07 12:53 | 50.72351 | -4.98487 | 37019 ft | 480 kts | 71° |
| 2026-05-07 12:54 | 50.74567 | -4.88545 | 37021 ft | 480 kts | 71° |
| 2026-05-07 12:54 | 50.76777 | -4.78591 | 37030 ft | 480 kts | 71° |
| 2026-05-07 12:55 | 50.78979 | -4.68619 | 37028 ft | 481 kts | 71° |
| 2026-05-07 12:55 | 50.81175 | -4.58630 | 37028 ft | 481 kts | 72° |
| 2026-05-07 12:56 | 50.83362 | -4.48626 | 37029 ft | 482 kts | 72° |
| 2026-05-07 12:56 | 50.85545 | -4.38601 | 37028 ft | 482 kts | 72° |
| 2026-05-07 12:57 | 50.87723 | -4.28550 | 37032 ft | 482 kts | 72° |
| 2026-05-07 12:57 | 50.89892 | -4.18498 | 37036 ft | 482 kts | 72° |
| 2026-05-07 12:58 | 50.92049 | -4.08441 | 37034 ft | 482 kts | 72° |
| 2026-05-07 12:58 | 50.94197 | -3.98379 | 37040 ft | 482 kts | 72° |
| 2026-05-07 12:59 | 50.96335 | -3.88315 | 37042 ft | 481 kts | 72° |
| 2026-05-07 12:59 | 50.98464 | -3.78250 | 37048 ft | 481 kts | 72° |
| 2026-05-07 13:00 | 51.00581 | -3.68181 | 37043 ft | 481 kts | 72° |
| 2026-05-07 13:00 | 51.02686 | -3.58113 | 37044 ft | 480 kts | 72° |
| 2026-05-07 13:01 | 51.04767 | -3.48116 | 37046 ft | 479 kts | 72° |
| 2026-05-07 13:01 | 51.06853 | -3.38049 | 37045 ft | 480 kts | 72° |
| 2026-05-07 13:02 | 51.08931 | -3.27966 | 37049 ft | 480 kts | 72° |
| 2026-05-07 13:02 | 51.11001 | -3.17873 | 37050 ft | 480 kts | 72° |
| 2026-05-07 13:03 | 51.13062 | -3.07768 | 37040 ft | 480 kts | 73° |
| 2026-05-07 13:03 | 51.15116 | -2.97664 | 37048 ft | 480 kts | 73° |
| 2026-05-07 13:04 | 51.17157 | -2.87553 | 37042 ft | 480 kts | 73° |
| 2026-05-07 13:04 | 51.19191 | -2.77425 | 37048 ft | 479 kts | 73° |
| 2026-05-07 13:05 | 51.21218 | -2.67290 | 37047 ft | 480 kts | 73° |
| 2026-05-07 13:05 | 51.23234 | -2.57150 | 37047 ft | 480 kts | 73° |
| 2026-05-07 13:06 | 51.25241 | -2.46998 | 37042 ft | 479 kts | 73° |
| 2026-05-07 13:06 | 51.27240 | -2.36845 | 37048 ft | 479 kts | 73° |
| 2026-05-07 13:07 | 51.29226 | -2.26696 | 37049 ft | 479 kts | 73° |
| 2026-05-07 13:07 | 51.31203 | -2.16538 | 37046 ft | 478 kts | 73° |
| 2026-05-07 13:08 | 51.33170 | -2.06388 | 37049 ft | 478 kts | 73° |
| 2026-05-07 13:08 | 51.34987 | -1.97061 | 37044 ft | 477 kts | 72° |
| 2026-05-07 13:09 | 51.37222 | -1.87087 | 37049 ft | 477 kts | 70° |
| 2026-05-07 13:09 | 51.39487 | -1.77092 | 37052 ft | 477 kts | 71° |
| 2026-05-07 13:10 | 51.41635 | -1.67043 | 37053 ft | 477 kts | 73° |
| 2026-05-07 13:10 | 51.43537 | -1.56869 | 37058 ft | 477 kts | 75° |
| 2026-05-07 13:11 | 51.45390 | -1.46659 | 37055 ft | 478 kts | 74° |
| 2026-05-07 13:11 | 51.47262 | -1.36445 | 37042 ft | 477 kts | 74° |
| 2026-05-07 13:12 | 51.49147 | -1.26229 | 37047 ft | 478 kts | 74° |
| 2026-05-07 13:12 | 51.51033 | -1.15991 | 37046 ft | 479 kts | 74° |
| 2026-05-07 13:13 | 51.52912 | -1.05742 | 37046 ft | 478 kts | 74° |
| 2026-05-07 13:13 | 51.54778 | -0.95492 | 37045 ft | 478 kts | 75° |
| 2026-05-07 13:14 | 51.56634 | -0.85228 | 37046 ft | 479 kts | 75° |
| 2026-05-07 13:14 | 51.58484 | -0.74951 | 37050 ft | 478 kts | 75° |
| 2026-05-07 13:15 | 51.60321 | -0.64681 | 37054 ft | 478 kts | 75° |
| 2026-05-07 13:15 | 51.62152 | -0.54400 | 37065 ft | 478 kts | 75° |
| 2026-05-07 13:16 | 51.63971 | -0.44116 | 37073 ft | 478 kts | 75° |
| 2026-05-07 13:16 | 51.65783 | -0.33814 | 37078 ft | 479 kts | 75° |
| 2026-05-07 13:17 | 51.67588 | -0.23481 | 37074 ft | 479 kts | 75° |
| 2026-05-07 13:17 | 51.69386 | -0.13134 | 37075 ft | 480 kts | 75° |
| 2026-05-07 13:18 | 51.71179 | -0.02769 | 37072 ft | 480 kts | 75° |
| 2026-05-07 13:18 | 51.72959 | 0.07588 | 37079 ft | 480 kts | 75° |
| 2026-05-07 13:19 | 51.74730 | 0.17961 | 37072 ft | 479 kts | 75° |
| 2026-05-07 13:19 | 51.76486 | 0.28310 | 37071 ft | 477 kts | 75° |
| 2026-05-07 13:20 | 51.78229 | 0.38641 | 37073 ft | 476 kts | 75° |
| 2026-05-07 13:20 | 51.79962 | 0.48961 | 37072 ft | 476 kts | 75° |
| 2026-05-07 13:21 | 51.81682 | 0.59284 | 37075 ft | 475 kts | 75° |
| 2026-05-07 13:21 | 51.83395 | 0.69617 | 37074 ft | 477 kts | 75° |
| 2026-05-07 13:22 | 51.85104 | 0.79989 | 37075 ft | 478 kts | 76° |
| 2026-05-07 13:22 | 51.86807 | 0.90381 | 37076 ft | 479 kts | 76° |
| 2026-05-07 13:23 | 51.88505 | 1.00814 | 37075 ft | 480 kts | 76° |
| 2026-05-07 13:23 | 51.90184 | 1.11200 | 37074 ft | 480 kts | 76° |
| 2026-05-07 13:24 | 51.91867 | 1.21673 | 37075 ft | 481 kts | 76° |
| 2026-05-07 13:24 | 51.93543 | 1.32161 | 37073 ft | 481 kts | 76° |
| 2026-05-07 13:25 | 51.95208 | 1.42652 | 37072 ft | 480 kts | 76° |
| 2026-05-07 13:25 | 51.96875 | 1.53222 | 36227 ft | 491 kts | 76° |
| 2026-05-07 13:26 | 51.97717 | 1.58575 | 35492 ft | 490 kts | 76° |
| 2026-05-07 13:26 | 51.98552 | 1.63926 | 34655 ft | 490 kts | 76° |
| 2026-05-07 13:26 | 51.99387 | 1.69284 | 33791 ft | 490 kts | 76° |
| 2026-05-07 13:26 | 52.00221 | 1.74648 | 32900 ft | 490 kts | 76° |
| 2026-05-07 13:27 | 52.01053 | 1.80014 | 31952 ft | 490 kts | 76° |
| 2026-05-07 13:27 | 52.01882 | 1.85379 | 30975 ft | 491 kts | 76° |
| 2026-05-07 13:27 | 52.02707 | 1.90737 | 30240 ft | 486 kts | 76° |
| 2026-05-07 13:27 | 52.03518 | 1.96028 | 29580 ft | 479 kts | 76° |
| 2026-05-07 13:28 | 52.04315 | 2.01244 | 28924 ft | 473 kts | 76° |
| 2026-05-07 13:28 | 52.05100 | 2.06398 | 28291 ft | 468 kts | 76° |
| 2026-05-07 13:28 | 52.05876 | 2.11508 | 27659 ft | 463 kts | 76° |
| 2026-05-07 13:28 | 52.06640 | 2.16555 | 27034 ft | 458 kts | 76° |
| 2026-05-07 13:29 | 52.07395 | 2.21555 | 26411 ft | 453 kts | 76° |
| 2026-05-07 13:29 | 52.08140 | 2.26508 | 25824 ft | 449 kts | 76° |
| 2026-05-07 13:29 | 52.08876 | 2.31413 | 25208 ft | 445 kts | 76° |
| 2026-05-07 13:29 | 52.09604 | 2.36277 | 24608 ft | 441 kts | 77° |
| 2026-05-07 13:30 | 52.10324 | 2.41102 | 24012 ft | 437 kts | 77° |
| 2026-05-07 13:30 | 52.11035 | 2.45885 | 23419 ft | 434 kts | 77° |
| 2026-05-07 13:30 | 52.11925 | 2.50543 | 22890 ft | 428 kts | 65° |
| 2026-05-07 13:30 | 52.13363 | 2.54747 | 22549 ft | 426 kts | 58° |
| 2026-05-07 13:31 | 52.14936 | 2.58889 | 22169 ft | 433 kts | 58° |
| 2026-05-07 13:31 | 52.16534 | 2.63080 | 21778 ft | 436 kts | 58° |
| 2026-05-07 13:31 | 52.18114 | 2.67282 | 21378 ft | 433 kts | 58° |
| 2026-05-07 13:31 | 52.19641 | 2.71414 | 20988 ft | 430 kts | 59° |
| 2026-05-07 13:32 | 52.21160 | 2.75583 | 20603 ft | 426 kts | 59° |
| 2026-05-07 13:32 | 52.22655 | 2.79726 | 20217 ft | 423 kts | 59° |
| 2026-05-07 13:32 | 52.24136 | 2.83849 | 19837 ft | 419 kts | 59° |
| 2026-05-07 13:32 | 52.25602 | 2.87943 | 19461 ft | 416 kts | 59° |
| 2026-05-07 13:33 | 52.27057 | 2.92012 | 19084 ft | 414 kts | 59° |
| 2026-05-07 13:33 | 52.28500 | 2.96052 | 18717 ft | 411 kts | 59° |
| 2026-05-07 13:33 | 52.29936 | 3.00078 | 18347 ft | 409 kts | 59° |
| 2026-05-07 13:33 | 52.31362 | 3.04082 | 17981 ft | 407 kts | 59° |
| 2026-05-07 13:34 | 52.32781 | 3.08073 | 17614 ft | 405 kts | 59° |
| 2026-05-07 13:34 | 52.35598 | 3.16013 | 16892 ft | 402 kts | 59° |
| 2026-05-07 13:34 | 52.36994 | 3.19956 | 16529 ft | 400 kts | 60° |
| 2026-05-07 13:35 | 52.38385 | 3.23890 | 16162 ft | 398 kts | 60° |
| 2026-05-07 13:35 | 52.39765 | 3.27802 | 15804 ft | 396 kts | 60° |
| 2026-05-07 13:35 | 52.41139 | 3.31702 | 15450 ft | 394 kts | 60° |
| 2026-05-07 13:35 | 52.42505 | 3.35584 | 15096 ft | 393 kts | 60° |
| 2026-05-07 13:36 | 52.43863 | 3.39452 | 14745 ft | 390 kts | 60° |
| 2026-05-07 13:36 | 52.45093 | 3.43362 | 14378 ft | 382 kts | 70° |
| 2026-05-07 13:36 | 52.45588 | 3.46122 | 14165 ft | 381 kts | 77° |
| 2026-05-07 13:36 | 52.46143 | 3.50362 | 13832 ft | 381 kts | 78° |
| 2026-05-07 13:37 | 52.46685 | 3.54616 | 13491 ft | 381 kts | 78° |
| 2026-05-07 13:37 | 52.47245 | 3.58865 | 13148 ft | 382 kts | 77° |
| 2026-05-07 13:37 | 52.47825 | 3.63119 | 12803 ft | 381 kts | 77° |
| 2026-05-07 13:37 | 52.48415 | 3.67352 | 12465 ft | 380 kts | 77° |
| 2026-05-07 13:38 | 52.48751 | 3.71568 | 12130 ft | 370 kts | 92° |
| 2026-05-07 13:38 | 52.48223 | 3.75572 | 11910 ft | 348 kts | 112° |
| 2026-05-07 13:38 | 52.47179 | 3.79014 | 11557 ft | 328 kts | 120° |
| 2026-05-07 13:38 | 52.46051 | 3.82163 | 11160 ft | 313 kts | 121° |
| 2026-05-07 13:39 | 52.44942 | 3.85146 | 10739 ft | 301 kts | 122° |
| 2026-05-07 13:39 | 52.43862 | 3.88028 | 10225 ft | 293 kts | 122° |
| 2026-05-07 13:39 | 52.42801 | 3.90834 | 9638 ft | 288 kts | 122° |
| 2026-05-07 13:39 | 52.41745 | 3.93608 | 9032 ft | 285 kts | 122° |
| 2026-05-07 13:40 | 52.40700 | 3.96341 | 8438 ft | 280 kts | 122° |
| 2026-05-07 13:40 | 52.39675 | 3.99009 | 7919 ft | 274 kts | 122° |
| 2026-05-07 13:40 | 52.38665 | 4.01626 | 7406 ft | 271 kts | 122° |
| 2026-05-07 13:40 | 52.37645 | 4.04252 | 6940 ft | 277 kts | 122° |
| 2026-05-07 13:41 | 52.36599 | 4.06923 | 6452 ft | 281 kts | 122° |
| 2026-05-07 13:41 | 52.35530 | 4.09640 | 5967 ft | 286 kts | 122° |
| 2026-05-07 13:41 | 52.34443 | 4.12400 | 5472 ft | 291 kts | 122° |
| 2026-05-07 13:41 | 52.33358 | 4.15154 | 4982 ft | 289 kts | 122° |
| 2026-05-07 13:42 | 52.32286 | 4.17864 | 4467 ft | 279 kts | 122° |
| 2026-05-07 13:42 | 52.31246 | 4.20489 | 3947 ft | 271 kts | 122° |
| 2026-05-07 13:42 | 52.30239 | 4.23014 | 3537 ft | 259 kts | 122° |
| 2026-05-07 13:42 | 52.29282 | 4.25398 | 3152 ft | 244 kts | 122° |
| 2026-05-07 13:43 | 52.28373 | 4.27645 | 2771 ft | 231 kts | 122° |
| 2026-05-07 13:43 | 52.27497 | 4.29800 | 2407 ft | 226 kts | 122° |
| 2026-05-07 13:43 | 52.26626 | 4.31942 | 2094 ft | 227 kts | 122° |
| 2026-05-07 13:43 | 52.25753 | 4.34089 | 2069 ft | 227 kts | 122° |
| 2026-05-07 13:44 | 52.24872 | 4.36243 | 2031 ft | 229 kts | 122° |
| 2026-05-07 13:44 | 52.23987 | 4.38396 | 2007 ft | 228 kts | 122° |
| 2026-05-07 13:44 | 52.23107 | 4.40537 | 2005 ft | 226 kts | 122° |
| 2026-05-07 13:44 | 52.22248 | 4.42623 | 1987 ft | 216 kts | 122° |
| 2026-05-07 13:45 | 52.21447 | 4.44580 | 1966 ft | 198 kts | 120° |
| 2026-05-07 13:45 | 52.21036 | 4.46610 | 2017 ft | 186 kts | 93° |
| 2026-05-07 13:45 | 52.20951 | 4.48728 | 2005 ft | 186 kts | 92° |
| 2026-05-07 13:45 | 52.20862 | 4.50795 | 1995 ft | 181 kts | 91° |
| 2026-05-07 13:46 | 52.21076 | 4.52751 | 1989 ft | 177 kts | 61° |
| 2026-05-07 13:46 | 52.21660 | 4.54558 | 2008 ft | 184 kts | 62° |
| 2026-05-07 13:46 | 52.22249 | 4.56370 | 1987 ft | 173 kts | 59° |
| 2026-05-07 13:46 | 52.22841 | 4.57968 | 1996 ft | 158 kts | 57° |
| 2026-05-07 13:47 | 52.23413 | 4.59460 | 2005 ft | 158 kts | 57° |
| 2026-05-07 13:47 | 52.23999 | 4.60986 | 1783 ft | 158 kts | 57° |
| 2026-05-07 13:47 | 52.24581 | 4.62494 | 1614 ft | 158 kts | 57° |
| 2026-05-07 13:47 | 52.25166 | 4.64014 | 1406 ft | 158 kts | 57° |
| 2026-05-07 13:48 | 52.25741 | 4.65503 | 1169 ft | 150 kts | 57° |
| 2026-05-07 13:48 | 52.26277 | 4.66892 | 964 ft | 140 kts | 57° |
| 2026-05-07 13:48 | 52.26791 | 4.68228 | 784 ft | 139 kts | 57° |
| 2026-05-07 13:48 | 52.27300 | 4.69573 | 595 ft | 138 kts | 58° |
| 2026-05-07 13:49 | 52.27799 | 4.70890 | 408 ft | 138 kts | 57° |
| 2026-05-07 13:49 | 52.28319 | 4.72218 | 234 ft | 140 kts | 57° |
| 2026-05-07 13:49 | 52.28839 | 4.73546 | 66 ft | 139 kts | 57° |
| 2026-05-07 13:49 | 52.29344 | 4.74858 | 5 ft | 129 kts | 56° |
| 2026-05-07 13:50 | 52.29741 | 4.75884 | 2 ft | 80 kts | 58° |
| 2026-05-07 13:50 | 52.29938 | 4.76395 | 1 ft | 33 kts | 56° |
| 2026-05-07 13:50 | 52.30103 | 4.76603 | 3 ft | 26 kts | 28° |
| 2026-05-07 13:50 | 52.30217 | 4.76703 | 4 ft | 11 kts | 28° |
| 2026-05-07 13:51 | 52.30229 | 4.76714 | 4 ft | 0 kts | 28° |
| 2026-05-07 13:51 | 52.30241 | 4.76724 | 4 ft | 7 kts | 27° |
| 2026-05-07 13:51 | 52.30312 | 4.76827 | 4 ft | 15 kts | 56° |
| 2026-05-07 13:51 | 52.30394 | 4.77036 | 4 ft | 22 kts | 62° |
| 2026-05-07 13:52 | 52.30480 | 4.77260 | 4 ft | 20 kts | 58° |
| 2026-05-07 13:52 | 52.30555 | 4.77456 | 4 ft | 19 kts | 57° |
| 2026-05-07 13:52 | 52.30663 | 4.77584 | 4 ft | 21 kts | 8° |
| 2026-05-07 13:52 | 52.30794 | 4.77600 | 4 ft | 17 kts | 3° |
| 2026-05-07 13:53 | 52.30923 | 4.77613 | 4 ft | 20 kts | 3° |
| 2026-05-07 13:53 | 52.31058 | 4.77625 | 4 ft | 18 kts | 3° |
| 2026-05-07 13:53 | 52.31167 | 4.77635 | 4 ft | 12 kts | 3° |